createdAt,value
2023-04-21T00:01:23.176Z,13.50
2023-04-21T00:03:50.903Z,13.40
2023-04-21T00:06:22.650Z,13.40
2023-04-21T00:08:50.699Z,13.40
2023-04-21T00:11:17.842Z,13.40
2023-04-21T00:13:44.729Z,13.40
2023-04-21T00:16:11.989Z,13.30
2023-04-21T00:18:38.774Z,13.40
2023-04-21T00:21:05.551Z,13.40
2023-04-21T00:23:32.232Z,13.40
2023-04-21T00:26:02.522Z,13.30
2023-04-21T00:28:29.771Z,13.40
2023-04-21T00:30:57.940Z,13.30
2023-04-21T00:33:25.974Z,13.30
2023-04-21T00:35:54.604Z,13.30
2023-04-21T00:38:21.403Z,13.40
2023-04-21T00:40:48.183Z,13.30
2023-04-21T00:43:14.880Z,13.30
2023-04-21T00:45:41.556Z,13.20
2023-04-21T00:48:08.227Z,13.20
2023-04-21T00:50:35.069Z,13.20
2023-04-21T00:53:01.945Z,13.20
2023-04-21T00:55:29.250Z,13.10
2023-04-21T00:57:56.627Z,13.10
2023-04-21T01:00:27.732Z,13.20
2023-04-21T01:02:54.761Z,13.10
2023-04-21T01:05:21.960Z,13.10
2023-04-21T01:07:49.511Z,13.10
2023-04-21T01:10:16.181Z,13.10
2023-04-21T01:12:47.029Z,13.00
2023-04-21T01:15:15.659Z,13.00
2023-04-21T01:17:42.960Z,12.90
2023-04-21T01:20:13.297Z,13.00
2023-04-21T01:22:45.263Z,13.00
2023-04-21T01:25:12.101Z,12.90
2023-04-21T01:27:39.053Z,12.90
2023-04-21T01:30:07.333Z,13.00
2023-04-21T01:32:35.017Z,12.90
2023-04-21T01:35:02.307Z,12.80
2023-04-21T01:37:32.403Z,12.90
2023-04-21T01:40:01.479Z,12.80
2023-04-21T01:42:30.174Z,12.90
2023-04-21T01:44:59.099Z,13.00
2023-04-21T01:47:26.459Z,12.90
2023-04-21T01:49:53.553Z,12.80
2023-04-21T01:52:21.371Z,12.80
2023-04-21T01:54:48.131Z,12.80
2023-04-21T01:57:15.731Z,12.80
2023-04-21T01:59:43.485Z,12.80
2023-04-21T02:02:11.088Z,12.70
2023-04-21T02:04:38.124Z,12.80
2023-04-21T02:07:06.317Z,12.70
2023-04-21T02:09:33.093Z,12.80
2023-04-21T02:12:00.352Z,12.70
2023-04-21T02:14:27.139Z,13.60
2023-04-21T02:16:53.967Z,12.70
2023-04-21T02:19:22.030Z,12.90
2023-04-21T02:21:48.833Z,12.80
2023-04-21T02:24:15.840Z,12.80
2023-04-21T02:26:42.603Z,12.90
2023-04-21T02:29:09.363Z,12.90
2023-04-21T02:31:53.837Z,12.90
2023-04-21T02:34:24.570Z,12.80
2023-04-21T02:36:51.689Z,12.90
2023-04-21T02:39:19.559Z,12.80
2023-04-21T02:41:46.565Z,12.70
2023-04-21T02:44:13.293Z,12.70
2023-04-21T02:46:41.629Z,12.70
2023-04-21T02:49:09.061Z,12.60
2023-04-21T02:51:36.156Z,12.80
2023-04-21T02:54:03.294Z,12.70
2023-04-21T02:56:30.051Z,12.70
2023-04-21T02:58:56.978Z,12.70
2023-04-21T03:01:23.758Z,12.70
2023-04-21T03:03:50.485Z,12.60
2023-04-21T03:06:17.306Z,12.60
2023-04-21T03:08:46.954Z,12.60
2023-04-21T03:14:12.939Z,12.70
2023-04-21T03:16:39.795Z,12.70
2023-04-21T03:19:06.585Z,12.60
2023-04-21T03:21:37.983Z,12.80
2023-04-21T03:24:06.555Z,12.60
2023-04-21T03:26:33.382Z,12.70
2023-04-21T03:29:00.070Z,12.70
2023-04-21T03:31:26.815Z,12.60
2023-04-21T03:33:53.563Z,12.70
2023-04-21T03:36:20.426Z,12.70
2023-04-21T03:38:47.205Z,12.60
2023-04-21T03:41:13.893Z,12.60
2023-04-21T03:43:40.587Z,12.60
2023-04-21T03:46:07.472Z,12.40
2023-04-21T03:48:34.283Z,12.50
2023-04-21T03:51:00.932Z,12.50
2023-04-21T03:53:27.584Z,12.50
2023-04-21T03:55:54.216Z,12.50
2023-04-21T03:58:20.855Z,12.50
2023-04-21T04:00:47.510Z,12.50
2023-04-21T04:03:14.489Z,12.50
2023-04-21T04:05:41.341Z,12.50
2023-04-21T04:08:08.077Z,12.50
2023-04-21T04:10:34.846Z,12.50
2023-04-21T04:13:01.555Z,12.50
2023-04-21T04:15:28.324Z,12.50
2023-04-21T04:17:55.637Z,12.50
2023-04-21T04:20:22.570Z,12.60
2023-04-21T04:22:49.316Z,12.70
2023-04-21T04:25:17.012Z,12.70
2023-04-21T04:27:49.388Z,12.70
2023-04-21T04:30:16.784Z,12.70
2023-04-21T04:32:43.563Z,12.80
2023-04-21T04:35:10.940Z,12.60
2023-04-21T04:37:37.846Z,12.70
2023-04-21T04:40:06.745Z,12.70
2023-04-21T04:42:34.703Z,12.70
2023-04-21T04:45:01.986Z,12.80
2023-04-21T04:47:29.100Z,12.80
2023-04-21T04:49:55.866Z,12.70
2023-04-21T04:52:22.589Z,12.70
2023-04-21T04:54:49.322Z,12.80
2023-04-21T04:57:16.181Z,12.90
2023-04-21T04:59:43.010Z,12.80
2023-04-21T05:02:10.526Z,12.80
2023-04-21T05:04:37.677Z,12.90
2023-04-21T05:07:06.104Z,12.90
2023-04-21T05:09:32.899Z,12.80
2023-04-21T05:12:00.917Z,12.90
2023-04-21T05:14:27.857Z,12.90
2023-04-21T05:16:54.658Z,12.90
2023-04-21T05:19:21.410Z,13.00
2023-04-21T05:21:48.163Z,13.00
2023-04-21T05:24:14.886Z,12.90
2023-04-21T05:26:41.805Z,13.00
2023-04-21T05:29:08.529Z,13.10
2023-04-21T05:31:35.374Z,13.00
2023-04-21T05:34:02.110Z,13.10
2023-04-21T05:36:30.320Z,13.10
2023-04-21T05:38:57.063Z,13.10
2023-04-21T05:41:23.900Z,13.20
2023-04-21T05:43:50.655Z,13.20
2023-04-21T05:46:17.502Z,13.30
2023-04-21T05:48:44.256Z,13.30
2023-04-21T05:51:17.939Z,13.40
2023-04-21T05:53:45.557Z,13.40
2023-04-21T05:56:13.257Z,13.30
2023-04-21T05:58:39.949Z,13.30
2023-04-21T06:01:06.596Z,13.50
2023-04-21T06:03:34.136Z,13.40
2023-04-21T06:06:02.928Z,14.30
2023-04-21T06:08:29.669Z,13.40
2023-04-21T06:10:56.452Z,13.50
2023-04-21T06:13:23.211Z,13.60
2023-04-21T06:15:56.230Z,14.30
2023-04-21T06:18:24.120Z,13.90
2023-04-21T06:20:55.336Z,13.60
2023-04-21T06:23:22.290Z,13.70
2023-04-21T06:26:04.996Z,13.70
2023-04-21T06:28:32.779Z,13.70
2023-04-21T06:31:01.109Z,13.70
2023-04-21T06:33:28.400Z,13.70
2023-04-21T06:35:55.362Z,13.90
2023-04-21T06:38:22.828Z,14.00
2023-04-21T06:40:50.447Z,14.00
2023-04-21T06:43:17.186Z,14.00
2023-04-21T06:45:43.931Z,14.20
2023-04-21T06:48:10.823Z,14.20
2023-04-21T06:50:37.547Z,14.10
2023-04-21T06:53:04.296Z,14.30
2023-04-21T06:55:31.102Z,14.20
2023-04-21T06:57:57.833Z,14.30
2023-04-21T07:00:24.732Z,14.30
2023-04-21T07:02:51.674Z,15.20
2023-04-21T07:05:18.569Z,14.50
2023-04-21T07:07:45.614Z,14.60
2023-04-21T07:10:12.477Z,14.60
2023-04-21T07:12:39.461Z,14.80
2023-04-21T07:15:07.055Z,15.10
2023-04-21T07:17:33.746Z,15.00
2023-04-21T07:20:00.548Z,15.10
2023-04-21T07:22:27.245Z,15.30
2023-04-21T07:24:53.964Z,16.00
2023-04-21T07:27:20.707Z,15.50
2023-04-21T07:29:47.414Z,15.40
2023-04-21T07:32:14.139Z,15.40
2023-04-21T07:34:40.877Z,15.30
2023-04-21T07:37:07.654Z,15.20
2023-04-21T07:39:34.393Z,15.20
2023-04-21T07:42:01.176Z,15.10
2023-04-21T07:44:29.354Z,15.00
2023-04-21T07:46:56.479Z,14.90
2023-04-21T07:49:23.473Z,15.00
2023-04-21T07:51:50.415Z,15.20
2023-04-21T07:54:17.283Z,15.30
2023-04-21T07:56:43.969Z,15.40
2023-04-21T07:59:10.849Z,15.50
2023-04-21T08:01:37.544Z,15.60
2023-04-21T08:04:04.439Z,15.80
2023-04-21T08:06:33.481Z,15.80
2023-04-21T08:09:00.355Z,15.80
2023-04-21T08:11:28.538Z,15.70
2023-04-21T08:13:55.292Z,16.10
2023-04-21T08:16:22.173Z,15.80
2023-04-21T08:18:49.445Z,15.80
2023-04-21T08:21:16.232Z,15.90
2023-04-21T08:23:42.990Z,16.10
2023-04-21T08:26:09.810Z,16.00
2023-04-21T08:28:36.627Z,16.30
2023-04-21T08:31:04.876Z,16.80
2023-04-21T08:33:31.743Z,16.80
2023-04-21T08:36:05.598Z,16.60
2023-04-21T08:38:37.745Z,16.60
2023-04-21T08:41:05.091Z,16.60
2023-04-21T08:43:32.902Z,16.70
2023-04-21T08:46:00.306Z,16.80
2023-04-21T08:48:29.642Z,16.90
2023-04-21T08:50:58.126Z,16.80
2023-04-21T08:53:25.061Z,17.00
2023-04-21T08:56:10.110Z,16.70
2023-04-21T08:58:38.426Z,16.80
2023-04-21T09:01:05.627Z,16.70
2023-04-21T09:03:32.699Z,16.90
2023-04-21T09:06:09.611Z,16.80
2023-04-21T09:08:43.029Z,17.00
2023-04-21T09:11:14.297Z,17.20
2023-04-21T09:13:43.225Z,17.30
2023-04-21T09:16:18.524Z,17.50
2023-04-21T09:18:45.693Z,17.50
2023-04-21T09:21:17.364Z,18.10
2023-04-21T09:23:49.636Z,18.00
2023-04-21T09:26:18.064Z,17.70
2023-04-21T09:28:46.518Z,18.00
2023-04-21T09:31:24.622Z,18.80
2023-04-21T09:34:00.440Z,18.20
2023-04-21T09:36:31.973Z,18.40
2023-04-21T09:41:32.626Z,18.70
2023-04-21T09:44:04.963Z,18.00
2023-04-21T09:46:36.767Z,17.90
2023-04-21T09:49:04.518Z,18.70
2023-04-21T09:51:49.073Z,17.90
2023-04-21T09:56:54.080Z,18.00
2023-04-21T09:59:27.506Z,18.10
2023-04-21T10:01:57.774Z,18.10
2023-04-21T10:04:26.482Z,18.20
2023-04-21T10:06:54.533Z,18.10
2023-04-21T10:09:24.845Z,18.10
2023-04-21T10:11:53.086Z,19.00
2023-04-21T10:14:20.463Z,18.20
2023-04-21T10:17:17.919Z,18.30
2023-04-21T10:19:50.569Z,19.10
2023-04-21T10:22:28.719Z,18.80
2023-04-21T10:24:57.054Z,18.90
2023-04-21T10:27:40.378Z,18.80
2023-04-21T10:30:23.278Z,18.90
2023-04-21T10:33:03.439Z,19.00
2023-04-21T10:36:04.949Z,19.20
2023-04-21T10:38:44.248Z,19.20
2023-04-21T10:41:28.493Z,19.30
2023-04-21T10:43:59.373Z,19.40
2023-04-21T10:46:37.529Z,19.70
2023-04-21T10:49:22.147Z,20.10
2023-04-21T10:51:58.292Z,19.40
2023-04-21T10:54:33.864Z,19.30
2023-04-21T10:57:01.569Z,19.20
2023-04-21T10:59:28.342Z,19.30
2023-04-21T11:01:55.790Z,19.10
2023-04-21T11:04:23.456Z,19.70
2023-04-21T11:07:11.377Z,19.10
2023-04-21T11:09:39.661Z,19.00
2023-04-21T11:12:09.224Z,19.30
2023-04-21T11:14:38.123Z,19.90
2023-04-21T11:17:10.631Z,19.30
2023-04-21T11:19:37.945Z,19.80
2023-04-21T11:22:05.550Z,19.40
2023-04-21T11:24:33.087Z,19.40
2023-04-21T11:27:03.102Z,19.20
2023-04-21T11:29:30.077Z,19.70
2023-04-21T11:31:59.004Z,19.10
2023-04-21T11:34:27.176Z,19.00
2023-04-21T11:36:54.208Z,19.50
2023-04-21T11:39:22.234Z,19.30
2023-04-21T11:41:51.020Z,19.10
2023-04-21T11:44:33.024Z,19.10
2023-04-21T11:47:00.273Z,19.30
2023-04-21T11:49:30.472Z,19.40
2023-04-21T11:51:57.753Z,19.60
2023-04-21T11:54:24.706Z,20.40
2023-04-21T11:56:52.191Z,20.30
2023-04-21T11:59:25.683Z,20.60
2023-04-21T12:01:54.464Z,20.80
2023-04-21T12:04:26.067Z,20.90
2023-04-21T12:07:01.421Z,20.90
2023-04-21T12:09:29.751Z,21.00
2023-04-21T12:11:58.719Z,21.40
2023-04-21T12:14:28.950Z,21.00
2023-04-21T12:16:57.936Z,21.10
2023-04-21T12:19:35.444Z,21.00
2023-04-21T12:22:02.303Z,20.90
2023-04-21T12:24:29.009Z,20.70
2023-04-21T12:26:55.920Z,20.60
2023-04-21T12:29:22.684Z,20.60
2023-04-21T12:31:49.449Z,20.70
2023-04-21T12:34:16.377Z,20.90
2023-04-21T12:36:43.227Z,21.20
2023-04-21T12:39:10.188Z,21.30
2023-04-21T12:41:36.915Z,21.90
2023-04-21T12:44:03.755Z,21.90
2023-04-21T12:46:30.580Z,21.10
2023-04-21T12:48:57.343Z,20.80
2023-04-21T12:51:24.152Z,20.70
2023-04-21T12:53:50.848Z,20.40
2023-04-21T12:56:18.585Z,20.40
2023-04-21T12:58:45.398Z,20.60
2023-04-21T13:01:14.722Z,20.40
2023-04-21T13:03:42.090Z,20.30
2023-04-21T13:06:10.502Z,20.40
2023-04-21T13:08:37.744Z,20.20
2023-04-21T13:11:05.280Z,20.30
2023-04-21T13:13:32.018Z,20.50
2023-04-21T13:15:58.749Z,21.50
2023-04-21T13:18:25.516Z,20.90
2023-04-21T13:20:52.238Z,21.10
2023-04-21T13:23:18.994Z,21.10
2023-04-21T13:25:46.386Z,20.90
2023-04-21T13:28:16.854Z,20.70
2023-04-21T13:30:44.525Z,20.30
2023-04-21T13:33:11.948Z,20.30
2023-04-21T13:35:38.709Z,20.40
2023-04-21T13:38:06.303Z,20.40
2023-04-21T13:40:33.059Z,20.90
2023-04-21T13:42:59.984Z,20.70
2023-04-21T13:45:26.795Z,21.10
2023-04-21T13:47:54.175Z,20.90
2023-04-21T13:50:21.678Z,21.30
2023-04-21T13:52:48.764Z,21.70
2023-04-21T13:55:15.742Z,21.70
2023-04-21T13:57:42.625Z,21.70
2023-04-21T14:00:11.293Z,22.60
2023-04-21T14:02:39.739Z,22.00
2023-04-21T14:05:07.056Z,22.00
2023-04-21T14:07:35.734Z,22.20
2023-04-21T14:10:02.570Z,22.10
2023-04-21T14:12:29.361Z,22.40
2023-04-21T14:14:56.264Z,22.80
2023-04-21T14:17:23.213Z,22.90
2023-04-21T14:19:51.591Z,23.10
2023-04-21T14:22:20.561Z,23.10
2023-04-21T14:24:47.359Z,23.10
2023-04-21T14:27:14.949Z,22.90
2023-04-21T14:29:41.708Z,23.40
2023-04-21T14:32:08.522Z,22.80
2023-04-21T14:34:35.701Z,22.50
2023-04-21T14:37:02.514Z,22.20
2023-04-21T14:39:29.251Z,22.00
2023-04-21T14:41:56.018Z,21.90
2023-04-21T14:44:22.729Z,21.60
2023-04-21T14:46:57.444Z,21.50
2023-04-21T14:49:33.152Z,21.40
2023-04-21T14:52:00.080Z,22.30
2023-04-21T14:54:26.869Z,21.50
2023-04-21T14:57:03.296Z,21.40
2023-04-21T14:59:37.700Z,22.00
2023-04-21T15:02:04.733Z,21.30
2023-04-21T15:04:31.639Z,21.10
2023-04-21T15:06:58.566Z,21.50
2023-04-21T15:09:25.280Z,20.70
2023-04-21T15:11:52.137Z,20.60
2023-04-21T15:14:18.960Z,20.40
2023-04-21T15:16:45.724Z,20.50
2023-04-21T15:19:13.399Z,20.30
2023-04-21T15:21:40.717Z,20.50
2023-04-21T15:24:08.056Z,21.20
2023-04-21T15:26:34.776Z,20.60
2023-04-21T15:29:01.666Z,20.80
2023-04-21T15:31:28.786Z,20.90
2023-04-21T15:33:55.620Z,21.30
2023-04-21T15:36:22.310Z,21.60
2023-04-21T15:38:49.050Z,21.90
2023-04-21T15:41:17.339Z,22.60
2023-04-21T15:43:44.147Z,22.90
2023-04-21T15:46:13.946Z,23.00
2023-04-21T15:48:41.421Z,23.60
2023-04-21T15:51:09.085Z,23.20
2023-04-21T15:53:37.354Z,23.00
2023-04-21T15:56:04.782Z,22.90
2023-04-21T15:58:31.712Z,23.00
2023-04-21T16:00:58.568Z,23.00
2023-04-21T16:03:26.079Z,23.00
2023-04-21T16:05:53.509Z,23.10
2023-04-21T16:08:20.643Z,23.00
2023-04-21T16:10:47.667Z,23.30
2023-04-21T16:13:14.506Z,23.50
2023-04-21T16:15:41.505Z,23.60
2023-04-21T16:18:08.464Z,23.80
2023-04-21T16:20:36.696Z,23.90
2023-04-21T16:23:04.914Z,23.90
2023-04-21T16:25:34.624Z,23.60
2023-04-21T16:28:01.480Z,23.40
2023-04-21T16:30:28.265Z,23.40
2023-04-21T16:32:55.011Z,23.20
2023-04-21T16:35:21.902Z,23.30
2023-04-21T16:37:48.780Z,23.20
2023-04-21T16:40:15.580Z,24.00
2023-04-21T16:42:42.313Z,23.20
2023-04-21T16:45:09.468Z,23.50
2023-04-21T16:47:42.045Z,25.70
2023-04-21T16:50:09.755Z,23.70
2023-04-21T16:52:36.519Z,23.80
2023-04-21T16:55:03.257Z,24.20
2023-04-21T16:57:31.123Z,23.70
2023-04-21T17:00:00.534Z,23.50
2023-04-21T17:02:27.467Z,23.50
2023-04-21T17:04:54.293Z,23.80
2023-04-21T17:07:21.112Z,24.20
2023-04-21T17:09:47.877Z,23.50
2023-04-21T17:12:14.603Z,23.30
2023-04-21T17:14:41.422Z,23.10
2023-04-21T17:17:08.312Z,23.20
2023-04-21T17:19:35.332Z,23.00
2023-04-21T17:22:02.202Z,22.70
2023-04-21T17:24:35.447Z,22.30
2023-04-21T17:27:08.290Z,22.00
2023-04-21T17:29:35.114Z,21.80
2023-04-21T17:32:01.891Z,21.50
2023-04-21T17:34:30.756Z,21.50
2023-04-21T17:36:57.597Z,21.40
2023-04-21T17:39:24.379Z,21.30
2023-04-21T17:41:51.099Z,21.30
2023-04-21T17:44:17.827Z,21.40
2023-04-21T17:46:44.762Z,21.50
2023-04-21T17:49:11.671Z,21.60
2023-04-21T17:51:38.360Z,21.50
2023-04-21T17:54:05.307Z,21.60
2023-04-21T17:56:32.128Z,21.50
2023-04-21T17:58:58.843Z,21.50
2023-04-21T18:01:25.776Z,21.30
2023-04-21T18:03:56.497Z,21.30
2023-04-21T18:06:25.509Z,21.10
2023-04-21T18:08:52.292Z,21.60
2023-04-21T18:11:19.144Z,20.90
2023-04-21T18:13:45.908Z,20.60
2023-04-21T18:16:12.715Z,20.60
2023-04-21T18:18:39.584Z,19.80
2023-04-21T18:21:06.505Z,18.60
2023-04-21T18:23:34.674Z,17.70
2023-04-21T18:26:01.987Z,16.90
2023-04-21T18:28:29.479Z,16.30
2023-04-21T18:30:56.514Z,15.80
2023-04-21T18:33:23.669Z,15.60
2023-04-21T18:35:50.502Z,15.50
2023-04-21T18:38:17.221Z,15.50
2023-04-21T18:40:44.049Z,15.40
2023-04-21T18:43:11.039Z,16.20
2023-04-21T18:45:38.576Z,15.40
2023-04-21T18:48:05.818Z,15.50
2023-04-21T18:50:35.180Z,15.80
2023-04-21T18:53:03.460Z,15.30
2023-04-21T18:55:30.582Z,15.30
2023-04-21T18:57:57.327Z,15.10
2023-04-21T19:00:24.184Z,15.00
2023-04-21T19:02:51.404Z,15.70
2023-04-21T19:05:18.976Z,14.80
2023-04-21T19:07:45.638Z,15.40
2023-04-21T19:10:12.387Z,14.70
2023-04-21T19:12:41.424Z,14.60
2023-04-21T19:15:08.745Z,14.60
2023-04-21T19:17:35.673Z,14.50
2023-04-21T19:20:02.433Z,14.50
2023-04-21T19:22:31.826Z,14.40
2023-04-21T19:24:58.612Z,14.30
2023-04-21T19:27:25.426Z,14.30
2023-04-21T19:29:52.184Z,14.40
2023-04-21T19:32:18.937Z,14.30
2023-04-21T19:34:46.124Z,14.30
2023-04-21T19:37:14.014Z,14.30
2023-04-21T19:39:40.745Z,14.20
2023-04-21T19:42:07.922Z,14.20
2023-04-21T19:44:34.633Z,14.00
2023-04-21T19:47:01.430Z,14.00
2023-04-21T19:49:28.763Z,14.00
2023-04-21T19:51:55.989Z,14.10
2023-04-21T19:54:22.774Z,14.10
2023-04-21T19:56:50.004Z,14.20
2023-04-21T19:59:16.692Z,14.40
2023-04-21T20:01:43.444Z,14.30
2023-04-21T20:04:12.086Z,14.40
2023-04-21T20:06:39.948Z,14.40
2023-04-21T20:09:06.752Z,14.50
2023-04-21T20:11:33.950Z,14.40
2023-04-21T20:14:00.689Z,14.40
2023-04-21T20:16:27.937Z,14.30
2023-04-21T20:18:57.773Z,14.40
2023-04-21T20:21:24.629Z,14.40
2023-04-21T20:23:51.442Z,14.40
2023-04-21T20:26:18.223Z,14.30
2023-04-21T20:28:45.083Z,14.30
2023-04-21T20:31:11.868Z,14.40
2023-04-21T20:33:38.604Z,14.40
2023-04-21T20:36:07.283Z,14.20
2023-04-21T20:38:34.905Z,14.30
2023-04-21T20:41:03.263Z,14.30
2023-04-21T20:43:32.990Z,14.30
2023-04-21T20:46:03.297Z,12.80
2023-04-21T20:48:30.292Z,14.40
2023-04-21T20:50:57.064Z,15.20
2023-04-21T20:53:24.068Z,14.50
2023-04-21T20:55:51.096Z,14.60
2023-04-21T20:58:17.900Z,14.60
2023-04-21T21:00:44.681Z,14.70
2023-04-21T21:03:13.673Z,14.60
2023-04-21T21:05:41.353Z,14.50
2023-04-21T21:08:08.866Z,14.50
2023-04-21T21:10:36.041Z,14.50
2023-04-21T21:13:02.933Z,14.40
2023-04-21T21:15:32.672Z,14.40
2023-04-21T21:17:59.824Z,15.10
2023-04-21T21:20:26.738Z,14.40
2023-04-21T21:22:53.713Z,14.30
2023-04-21T21:25:20.506Z,14.50
2023-04-21T21:27:47.419Z,14.40
2023-04-21T21:30:14.336Z,14.60
2023-04-21T21:32:41.130Z,14.40
2023-04-21T21:35:09.444Z,14.40
2023-04-21T21:37:37.216Z,14.50
2023-04-21T21:40:04.689Z,14.50
2023-04-21T21:42:31.570Z,14.60
2023-04-21T21:44:58.428Z,14.60
2023-04-21T21:47:26.065Z,14.50
2023-04-21T21:49:54.965Z,14.70
2023-04-21T21:52:21.995Z,14.40
2023-04-21T21:54:48.784Z,14.60
2023-04-21T21:57:16.214Z,14.40
2023-04-21T21:59:42.951Z,14.40
2023-04-21T22:02:09.838Z,14.40
2023-04-21T22:04:37.738Z,14.30
2023-04-21T22:07:05.031Z,14.40
2023-04-21T22:09:31.950Z,14.30
2023-04-21T22:11:58.770Z,14.20
2023-04-21T22:14:25.575Z,14.60
2023-04-21T22:16:52.662Z,14.30
2023-04-21T22:19:20.185Z,14.30
2023-04-21T22:21:47.154Z,14.20
2023-04-21T22:24:14.241Z,14.20
2023-04-21T22:26:41.072Z,14.20
2023-04-21T22:29:07.794Z,14.20
2023-04-21T22:31:34.658Z,14.10
2023-04-21T22:34:01.527Z,14.20
2023-04-21T22:36:28.270Z,14.10
2023-04-21T22:38:54.949Z,13.90
2023-04-21T22:41:21.758Z,13.90
2023-04-21T22:43:48.446Z,13.80
2023-04-21T22:46:15.259Z,13.70
2023-04-21T22:48:42.026Z,13.70
2023-04-21T22:51:08.764Z,13.70
2023-04-21T22:53:35.567Z,13.60
2023-04-21T22:56:02.342Z,13.70
2023-04-21T22:58:29.134Z,13.60
2023-04-21T23:00:56.161Z,13.40
2023-04-21T23:03:23.883Z,14.40
2023-04-21T23:05:50.898Z,13.50
2023-04-21T23:08:17.658Z,13.40
2023-04-21T23:10:44.332Z,13.40
2023-04-21T23:13:11.065Z,13.40
2023-04-21T23:15:37.772Z,13.20
2023-04-21T23:18:05.877Z,13.10
2023-04-21T23:20:32.732Z,13.20
2023-04-21T23:22:59.496Z,13.20
2023-04-21T23:25:26.298Z,13.10
2023-04-21T23:27:53.001Z,13.10
2023-04-21T23:30:19.829Z,13.00
2023-04-21T23:32:46.645Z,13.00
2023-04-21T23:35:13.488Z,13.00
2023-04-21T23:37:40.474Z,12.90
2023-04-21T23:40:11.027Z,12.70
2023-04-21T23:42:38.739Z,12.80
2023-04-21T23:45:06.426Z,12.70
2023-04-21T23:47:33.441Z,12.70
2023-04-21T23:50:00.260Z,12.50
2023-04-21T23:52:27.125Z,12.50
2023-04-21T23:54:53.960Z,12.50
2023-04-21T23:57:20.844Z,12.40
2023-04-21T23:59:47.694Z,12.30
